Startpagina
METAR-TAF:

METAR-TAF

Vliegvelden :

Aeropuerto Internacional Jorge Newbery

Buenos Aires, Argentinië

breedte: 34-34S, lengte: 058-25W, hoogte: 6 m

Actueel weer

Dit bericht is 15 minuten geleden gemaakt, om 21:00 UTC
Wind 6 kt uit het noorden, variërend tussen het noordnoordwesten en het noordoosten
Temperatuur 25°C
Vochtigheid 54%
Druk 1013 hPa
Zicht 10 km of meer
geen wolken onder 1500 m en geen cumulonimbus

METAR: SABE 232100Z 36006KT 330V040 CAVOK 25/15 Q1013 NOSIG

Tijdstip: 18:15 (21:15 UTC)

Verwachting

Dit bericht is 4 uur en het 15 minuten geleden gemaakt, om 17:00 UTC
Verwachting geldig van 23 om 18 UTC tot 24 om 18 UTC
Wind 10 kt uit het noordoosten
Zicht 10 km of meer
geen wolken onder 1500 m en geen cumulonimbus
Wijzigt naar
van 23 om 19 UTC tot 23 om 21 UTC
Wind 15 kt uit het oosten
Wijzigt naar
van 24 om 03 UTC tot 24 om 05 UTC
Wind 15 kt uit het noorden

TAF: SABE 231700Z 2318/2418 04010KT CAVOK TX28/2418Z TN21/2409Z BECMG 2319/2321 08015KT BECMG 2403/2405 36015KT

Waarnemingen en weersverwachtingen van meer dan 4000 vliegvelden (METAR en TAF).

De beschikbare stations zijn de gele en rode punten op de kaart.

Ga met uw muis naar het station om de naam te zien.

Klik dan om waarnemingen en weersverwachtingen te zien.

kaart wijzigen: klik op de groene knoppen met een zwart kruis om in te zoomen, op de groene knop met een streepje om uit te zoomen of op de groene pijlen voor aangrenzende kaarten.


METAR-TAF: